Archival Weather

Chicago O'Hare International

Chicago, Illinois (KORD)

Report from: Wednesday, March 27, 2024 10:51 PM CDT
Current time: Tuesday, May 21, 2024 11:43 AM CDT

Current weather – Weather history – Daily summaries
Weather forecast

Temperature1.7°C (35.1°F)
Wind chill-0.5°C (31.0°F)
Dew point-4.4°C (24.1°F)
Winds 4 kts (2.1 m/s, 4.6 mph) West-Southwest (250°)
Visibility10 mi. (16.1 km)
Clouds Sky clear
Altimeter30.11 in.Hg (1020 mB)
Relative humidity64 %
Density altitude-1,782 ft. (-543 m)
Sea-level pressure102.0 kPa (1020 mB, 30.12 in.Hg)
Remarks Automated weather observing station with precipitation discriminator
Flight conditions Visual Meteorological Conditions
Raw dataKORD 280351Z 25004KT 10SM CLR 02/M04 A3011 RMK AO2 SLP201 T00171044
An error has occurred. This application may no longer respond until reloaded. Reload 🗙